<?xml version="1.0" encoding="UTF-8" standalone="no" ?>
<gpx xmlns="http://www.topografix.com/GPX/1/1" xmlns:xsi="http://www.w3.org/2001/XMLSchema-instance" xsi:schemaLocation="http://www.topografix.com/GPX/1/1 http://www.topografix.com/GPX/1/1/gpx.xsd" version="1.1" creator="VisuGPX - https://www.visugpx.com">
  <metadata>
    <name>De Roquefort à Mont-de-Marsan</name>
    <desc><![CDATA[LE CHEMIN VERS COMPOSTELLE, LA VOIE DE VEZELAY d'EGUZON A ST JEAN-PIED-DE-PORT]]></desc>
  </metadata>
  <trk>
    <name><![CDATA[9563608-Roquefort-de-Marsan - Mont-de-Masan]]></name>
    <trkseg>
      <trkpt lat="44.03426" lon="-0.32287">
        <ele>72</ele>
        <time>2019-02-11T16:02:53Z</time>
      </trkpt>
      <trkpt lat="44.0334" lon="-0.32325">
        <ele>74</ele>
        <time>2019-02-11T16:03:53Z</time>
      </trkpt>
      <trkpt lat="44.03249" lon="-0.32361">
        <ele>67</ele>
        <time>2019-02-11T16:04:53Z</time>
      </trkpt>
      <trkpt lat="44.03208" lon="-0.32435">
        <ele>67</ele>
        <time>2019-02-11T16:05:53Z</time>
      </trkpt>
      <trkpt lat="44.03157" lon="-0.32482">
        <ele>75</ele>
        <time>2019-02-11T16:06:53Z</time>
      </trkpt>
      <trkpt lat="44.03152" lon="-0.3259">
        <ele>81</ele>
        <time>2019-02-11T16:07:53Z</time>
      </trkpt>
      <trkpt lat="44.03144" lon="-0.3265">
        <ele>85</ele>
        <time>2019-02-11T16:08:53Z</time>
      </trkpt>
      <trkpt lat="44.03117" lon="-0.32708">
        <ele>87</ele>
        <time>2019-02-11T16:09:53Z</time>
      </trkpt>
      <trkpt lat="44.03" lon="-0.32767">
        <ele>95</ele>
        <time>2019-02-11T16:10:53Z</time>
      </trkpt>
      <trkpt lat="44.02868" lon="-0.32749">
        <ele>99</ele>
        <time>2019-02-11T16:11:53Z</time>
      </trkpt>
      <trkpt lat="44.02836" lon="-0.3278">
        <ele>98</ele>
        <time>2019-02-11T16:12:53Z</time>
      </trkpt>
      <trkpt lat="44.02773" lon="-0.32823">
        <ele>97</ele>
        <time>2019-02-11T16:13:53Z</time>
      </trkpt>
      <trkpt lat="44.02732" lon="-0.32819">
        <ele>98</ele>
        <time>2019-02-11T16:14:53Z</time>
      </trkpt>
      <trkpt lat="44.02697" lon="-0.3283">
        <ele>97</ele>
        <time>2019-02-11T16:15:53Z</time>
      </trkpt>
      <trkpt lat="44.02666" lon="-0.3287">
        <ele>97</ele>
        <time>2019-02-11T16:16:53Z</time>
      </trkpt>
      <trkpt lat="44.02651" lon="-0.3291">
        <ele>96</ele>
        <time>2019-02-11T16:17:53Z</time>
      </trkpt>
      <trkpt lat="44.02535" lon="-0.32967">
        <ele>98</ele>
        <time>2019-02-11T16:18:53Z</time>
      </trkpt>
      <trkpt lat="44.02441" lon="-0.33018">
        <ele>98</ele>
        <time>2019-02-11T16:19:53Z</time>
      </trkpt>
      <trkpt lat="44.02379" lon="-0.33065">
        <ele>99</ele>
        <time>2019-02-11T16:20:53Z</time>
      </trkpt>
      <trkpt lat="44.02388" lon="-0.33096">
        <ele>98</ele>
        <time>2019-02-11T16:21:53Z</time>
      </trkpt>
      <trkpt lat="44.02436" lon="-0.33153">
        <ele>98</ele>
        <time>2019-02-11T16:22:53Z</time>
      </trkpt>
      <trkpt lat="44.02535" lon="-0.33352">
        <ele>95</ele>
        <time>2019-02-11T16:23:53Z</time>
      </trkpt>
      <trkpt lat="44.02537" lon="-0.33409">
        <ele>96</ele>
        <time>2019-02-11T16:24:53Z</time>
      </trkpt>
      <trkpt lat="44.02481" lon="-0.33437">
        <ele>97</ele>
        <time>2019-02-11T16:25:53Z</time>
      </trkpt>
      <trkpt lat="44.02402" lon="-0.33496">
        <ele>98</ele>
        <time>2019-02-11T16:26:53Z</time>
      </trkpt>
      <trkpt lat="44.02326" lon="-0.33539">
        <ele>98</ele>
        <time>2019-02-11T16:27:53Z</time>
      </trkpt>
      <trkpt lat="44.02284" lon="-0.33568">
        <ele>98</ele>
        <time>2019-02-11T16:28:53Z</time>
      </trkpt>
      <trkpt lat="44.02278" lon="-0.33603">
        <ele>98</ele>
        <time>2019-02-11T16:29:53Z</time>
      </trkpt>
      <trkpt lat="44.02208" lon="-0.33628">
        <ele>99</ele>
        <time>2019-02-11T16:30:53Z</time>
      </trkpt>
      <trkpt lat="44.02156" lon="-0.33667">
        <ele>99</ele>
        <time>2019-02-11T16:31:53Z</time>
      </trkpt>
      <trkpt lat="44.02109" lon="-0.33691">
        <ele>97</ele>
        <time>2019-02-11T16:32:53Z</time>
      </trkpt>
      <trkpt lat="44.02106" lon="-0.33709">
        <ele>97</ele>
        <time>2019-02-11T16:33:53Z</time>
      </trkpt>
      <trkpt lat="44.02167" lon="-0.33924">
        <ele>100</ele>
        <time>2019-02-11T16:34:53Z</time>
      </trkpt>
      <trkpt lat="44.02206" lon="-0.33998">
        <ele>101</ele>
        <time>2019-02-11T16:35:53Z</time>
      </trkpt>
      <trkpt lat="44.0211" lon="-0.34147">
        <ele>99</ele>
        <time>2019-02-11T16:36:53Z</time>
      </trkpt>
      <trkpt lat="44.02032" lon="-0.34212">
        <ele>100</ele>
        <time>2019-02-11T16:37:53Z</time>
      </trkpt>
      <trkpt lat="44.01929" lon="-0.34297">
        <ele>104</ele>
        <time>2019-02-11T16:38:53Z</time>
      </trkpt>
      <trkpt lat="44.01874" lon="-0.3436">
        <ele>103</ele>
        <time>2019-02-11T16:39:53Z</time>
      </trkpt>
      <trkpt lat="44.01854" lon="-0.34401">
        <ele>102</ele>
        <time>2019-02-11T16:40:53Z</time>
      </trkpt>
      <trkpt lat="44.01822" lon="-0.34401">
        <ele>102</ele>
        <time>2019-02-11T16:41:53Z</time>
      </trkpt>
      <trkpt lat="44.01786" lon="-0.34412">
        <ele>104</ele>
        <time>2019-02-11T16:42:53Z</time>
      </trkpt>
      <trkpt lat="44.01681" lon="-0.34471">
        <ele>106</ele>
        <time>2019-02-11T16:43:53Z</time>
      </trkpt>
      <trkpt lat="44.01654" lon="-0.3448">
        <ele>106</ele>
        <time>2019-02-11T16:44:53Z</time>
      </trkpt>
      <trkpt lat="44.0152" lon="-0.34529">
        <ele>105</ele>
        <time>2019-02-11T16:45:53Z</time>
      </trkpt>
      <trkpt lat="44.01423" lon="-0.34546">
        <ele>105</ele>
        <time>2019-02-11T16:46:53Z</time>
      </trkpt>
      <trkpt lat="44.01363" lon="-0.34546">
        <ele>105</ele>
        <time>2019-02-11T16:47:53Z</time>
      </trkpt>
      <trkpt lat="44.01315" lon="-0.34555">
        <ele>106</ele>
        <time>2019-02-11T16:48:53Z</time>
      </trkpt>
      <trkpt lat="44.01273" lon="-0.34551">
        <ele>108</ele>
        <time>2019-02-11T16:49:53Z</time>
      </trkpt>
      <trkpt lat="44.01237" lon="-0.34542">
        <ele>108</ele>
        <time>2019-02-11T16:50:53Z</time>
      </trkpt>
      <trkpt lat="44.01165" lon="-0.34535">
        <ele>109</ele>
        <time>2019-02-11T16:51:53Z</time>
      </trkpt>
      <trkpt lat="44.01143" lon="-0.34522">
        <ele>108</ele>
        <time>2019-02-11T16:52:53Z</time>
      </trkpt>
      <trkpt lat="44.01117" lon="-0.34516">
        <ele>106</ele>
        <time>2019-02-11T16:53:53Z</time>
      </trkpt>
      <trkpt lat="44.01075" lon="-0.34522">
        <ele>103</ele>
        <time>2019-02-11T16:54:53Z</time>
      </trkpt>
      <trkpt lat="44.01038" lon="-0.34521">
        <ele>103</ele>
        <time>2019-02-11T16:55:53Z</time>
      </trkpt>
      <trkpt lat="44.00974" lon="-0.34531">
        <ele>104</ele>
        <time>2019-02-11T16:56:53Z</time>
      </trkpt>
      <trkpt lat="44.00833" lon="-0.34514">
        <ele>105</ele>
        <time>2019-02-11T16:57:53Z</time>
      </trkpt>
      <trkpt lat="44.00739" lon="-0.34508">
        <ele>106</ele>
        <time>2019-02-11T16:58:53Z</time>
      </trkpt>
      <trkpt lat="44.00631" lon="-0.34523">
        <ele>106</ele>
        <time>2019-02-11T16:59:53Z</time>
      </trkpt>
      <trkpt lat="44.00539" lon="-0.34557">
        <ele>106</ele>
        <time>2019-02-11T17:00:53Z</time>
      </trkpt>
      <trkpt lat="44.00413" lon="-0.34635">
        <ele>105</ele>
        <time>2019-02-11T17:01:53Z</time>
      </trkpt>
      <trkpt lat="44.00343" lon="-0.34691">
        <ele>103</ele>
        <time>2019-02-11T17:02:53Z</time>
      </trkpt>
      <trkpt lat="44.00386" lon="-0.34786">
        <ele>104</ele>
        <time>2019-02-11T17:03:53Z</time>
      </trkpt>
      <trkpt lat="44.00399" lon="-0.34811">
        <ele>105</ele>
        <time>2019-02-11T17:04:53Z</time>
      </trkpt>
      <trkpt lat="44.00377" lon="-0.34862">
        <ele>103</ele>
        <time>2019-02-11T17:05:53Z</time>
      </trkpt>
      <trkpt lat="44.00308" lon="-0.34905">
        <ele>98</ele>
        <time>2019-02-11T17:06:53Z</time>
      </trkpt>
      <trkpt lat="44.00209" lon="-0.34956">
        <ele>102</ele>
        <time>2019-02-11T17:07:53Z</time>
      </trkpt>
      <trkpt lat="44.00117" lon="-0.34985">
        <ele>107</ele>
        <time>2019-02-11T17:08:53Z</time>
      </trkpt>
      <trkpt lat="44.0004" lon="-0.35033">
        <ele>106</ele>
        <time>2019-02-11T17:09:53Z</time>
      </trkpt>
      <trkpt lat="43.99948" lon="-0.35091">
        <ele>104</ele>
        <time>2019-02-11T17:10:53Z</time>
      </trkpt>
      <trkpt lat="43.99896" lon="-0.35138">
        <ele>101</ele>
        <time>2019-02-11T17:11:53Z</time>
      </trkpt>
      <trkpt lat="43.99809" lon="-0.3521">
        <ele>98</ele>
        <time>2019-02-11T17:12:53Z</time>
      </trkpt>
      <trkpt lat="43.99739" lon="-0.35261">
        <ele>97</ele>
        <time>2019-02-11T17:13:53Z</time>
      </trkpt>
      <trkpt lat="43.99707" lon="-0.35309">
        <ele>94</ele>
        <time>2019-02-11T17:14:53Z</time>
      </trkpt>
      <trkpt lat="43.99663" lon="-0.35342">
        <ele>92</ele>
        <time>2019-02-11T17:15:53Z</time>
      </trkpt>
      <trkpt lat="43.99621" lon="-0.35351">
        <ele>92</ele>
        <time>2019-02-11T17:16:53Z</time>
      </trkpt>
      <trkpt lat="43.99558" lon="-0.35369">
        <ele>93</ele>
        <time>2019-02-11T17:17:53Z</time>
      </trkpt>
      <trkpt lat="43.99516" lon="-0.35389">
        <ele>93</ele>
        <time>2019-02-11T17:18:53Z</time>
      </trkpt>
      <trkpt lat="43.99489" lon="-0.35403">
        <ele>93</ele>
        <time>2019-02-11T17:19:53Z</time>
      </trkpt>
      <trkpt lat="43.99485" lon="-0.3543">
        <ele>91</ele>
        <time>2019-02-11T17:20:53Z</time>
      </trkpt>
      <trkpt lat="43.99504" lon="-0.35539">
        <ele>87</ele>
        <time>2019-02-11T17:21:53Z</time>
      </trkpt>
      <trkpt lat="43.99499" lon="-0.35575">
        <ele>89</ele>
        <time>2019-02-11T17:22:53Z</time>
      </trkpt>
      <trkpt lat="43.99363" lon="-0.35804">
        <ele>102</ele>
        <time>2019-02-11T17:23:53Z</time>
      </trkpt>
      <trkpt lat="43.99237" lon="-0.35829">
        <ele>106</ele>
        <time>2019-02-11T17:24:53Z</time>
      </trkpt>
      <trkpt lat="43.99044" lon="-0.3586">
        <ele>105</ele>
        <time>2019-02-11T17:25:53Z</time>
      </trkpt>
      <trkpt lat="43.98938" lon="-0.35905">
        <ele>101</ele>
        <time>2019-02-11T17:26:53Z</time>
      </trkpt>
      <trkpt lat="43.988" lon="-0.35955">
        <ele>104</ele>
        <time>2019-02-11T17:27:53Z</time>
      </trkpt>
      <trkpt lat="43.98777" lon="-0.35954">
        <ele>105</ele>
        <time>2019-02-11T17:28:53Z</time>
      </trkpt>
      <trkpt lat="43.9868" lon="-0.35914">
        <ele>109</ele>
        <time>2019-02-11T17:29:53Z</time>
      </trkpt>
      <trkpt lat="43.98487" lon="-0.35838">
        <ele>108</ele>
        <time>2019-02-11T17:30:53Z</time>
      </trkpt>
      <trkpt lat="43.98191" lon="-0.3577">
        <ele>108</ele>
        <time>2019-02-11T17:31:53Z</time>
      </trkpt>
      <trkpt lat="43.9783" lon="-0.35672">
        <ele>111</ele>
        <time>2019-02-11T17:32:53Z</time>
      </trkpt>
      <trkpt lat="43.97802" lon="-0.35676">
        <ele>110</ele>
        <time>2019-02-11T17:33:53Z</time>
      </trkpt>
      <trkpt lat="43.97653" lon="-0.35766">
        <ele>114</ele>
        <time>2019-02-11T17:34:53Z</time>
      </trkpt>
      <trkpt lat="43.9747" lon="-0.35871">
        <ele>109</ele>
        <time>2019-02-11T17:35:53Z</time>
      </trkpt>
      <trkpt lat="43.97421" lon="-0.35872">
        <ele>107</ele>
        <time>2019-02-11T17:36:53Z</time>
      </trkpt>
      <trkpt lat="43.97341" lon="-0.35905">
        <ele>104</ele>
        <time>2019-02-11T17:37:53Z</time>
      </trkpt>
      <trkpt lat="43.97212" lon="-0.3601">
        <ele>102</ele>
        <time>2019-02-11T17:38:53Z</time>
      </trkpt>
      <trkpt lat="43.97132" lon="-0.36037">
        <ele>100</ele>
        <time>2019-02-11T17:39:53Z</time>
      </trkpt>
      <trkpt lat="43.97048" lon="-0.3608">
        <ele>101</ele>
        <time>2019-02-11T17:40:53Z</time>
      </trkpt>
      <trkpt lat="43.96918" lon="-0.36176">
        <ele>104</ele>
        <time>2019-02-11T17:41:53Z</time>
      </trkpt>
      <trkpt lat="43.96719" lon="-0.36293">
        <ele>107</ele>
        <time>2019-02-11T17:42:53Z</time>
      </trkpt>
      <trkpt lat="43.96536" lon="-0.36416">
        <ele>111</ele>
        <time>2019-02-11T17:43:53Z</time>
      </trkpt>
      <trkpt lat="43.96332" lon="-0.3654">
        <ele>113</ele>
        <time>2019-02-11T17:44:53Z</time>
      </trkpt>
      <trkpt lat="43.96236" lon="-0.36607">
        <ele>114</ele>
        <time>2019-02-11T17:45:53Z</time>
      </trkpt>
      <trkpt lat="43.96169" lon="-0.36665">
        <ele>112</ele>
        <time>2019-02-11T17:46:53Z</time>
      </trkpt>
      <trkpt lat="43.96118" lon="-0.36739">
        <ele>113</ele>
        <time>2019-02-11T17:47:53Z</time>
      </trkpt>
      <trkpt lat="43.96053" lon="-0.36785">
        <ele>115</ele>
        <time>2019-02-11T17:48:53Z</time>
      </trkpt>
      <trkpt lat="43.95979" lon="-0.36843">
        <ele>113</ele>
        <time>2019-02-11T17:49:53Z</time>
      </trkpt>
      <trkpt lat="43.95917" lon="-0.3691">
        <ele>115</ele>
        <time>2019-02-11T17:50:53Z</time>
      </trkpt>
      <trkpt lat="43.95773" lon="-0.3696">
        <ele>110</ele>
        <time>2019-02-11T17:51:53Z</time>
      </trkpt>
      <trkpt lat="43.95482" lon="-0.36944">
        <ele>102</ele>
        <time>2019-02-11T17:52:53Z</time>
      </trkpt>
      <trkpt lat="43.95322" lon="-0.36937">
        <ele>97</ele>
        <time>2019-02-11T17:53:53Z</time>
      </trkpt>
      <trkpt lat="43.95165" lon="-0.36971">
        <ele>101</ele>
        <time>2019-02-11T17:54:53Z</time>
      </trkpt>
      <trkpt lat="43.94998" lon="-0.3698">
        <ele>99</ele>
        <time>2019-02-11T17:55:53Z</time>
      </trkpt>
      <trkpt lat="43.95014" lon="-0.36903">
        <ele>99</ele>
        <time>2019-02-11T17:56:53Z</time>
      </trkpt>
      <trkpt lat="43.94859" lon="-0.36964">
        <ele>98</ele>
        <time>2019-02-11T17:57:53Z</time>
      </trkpt>
      <trkpt lat="43.94605" lon="-0.37092">
        <ele>99</ele>
        <time>2019-02-11T17:58:53Z</time>
      </trkpt>
      <trkpt lat="43.94402" lon="-0.37195">
        <ele>94</ele>
        <time>2019-02-11T17:59:53Z</time>
      </trkpt>
      <trkpt lat="43.94228" lon="-0.37267">
        <ele>94</ele>
        <time>2019-02-11T18:00:53Z</time>
      </trkpt>
      <trkpt lat="43.94127" lon="-0.37226">
        <ele>92</ele>
        <time>2019-02-11T18:01:53Z</time>
      </trkpt>
      <trkpt lat="43.94114" lon="-0.37276">
        <ele>93</ele>
        <time>2019-02-11T18:02:53Z</time>
      </trkpt>
      <trkpt lat="43.94112" lon="-0.373">
        <ele>93</ele>
        <time>2019-02-11T18:03:53Z</time>
      </trkpt>
      <trkpt lat="43.94066" lon="-0.37334">
        <ele>93</ele>
        <time>2019-02-11T18:04:53Z</time>
      </trkpt>
      <trkpt lat="43.93916" lon="-0.37455">
        <ele>92</ele>
        <time>2019-02-11T18:05:53Z</time>
      </trkpt>
      <trkpt lat="43.9383" lon="-0.37547">
        <ele>92</ele>
        <time>2019-02-11T18:06:53Z</time>
      </trkpt>
      <trkpt lat="43.93649" lon="-0.37707">
        <ele>96</ele>
        <time>2019-02-11T18:07:53Z</time>
      </trkpt>
      <trkpt lat="43.93619" lon="-0.37697">
        <ele>97</ele>
        <time>2019-02-11T18:08:53Z</time>
      </trkpt>
      <trkpt lat="43.93539" lon="-0.37718">
        <ele>97</ele>
        <time>2019-02-11T18:09:53Z</time>
      </trkpt>
      <trkpt lat="43.93507" lon="-0.37709">
        <ele>95</ele>
        <time>2019-02-11T18:10:53Z</time>
      </trkpt>
      <trkpt lat="43.93482" lon="-0.37684">
        <ele>93</ele>
        <time>2019-02-11T18:11:53Z</time>
      </trkpt>
      <trkpt lat="43.93395" lon="-0.37545">
        <ele>90</ele>
        <time>2019-02-11T18:12:53Z</time>
      </trkpt>
      <trkpt lat="43.93333" lon="-0.37518">
        <ele>91</ele>
        <time>2019-02-11T18:13:53Z</time>
      </trkpt>
      <trkpt lat="43.93196" lon="-0.37464">
        <ele>90</ele>
        <time>2019-02-11T18:14:53Z</time>
      </trkpt>
      <trkpt lat="43.93063" lon="-0.37514">
        <ele>90</ele>
        <time>2019-02-11T18:15:53Z</time>
      </trkpt>
      <trkpt lat="43.92787" lon="-0.37624">
        <ele>89</ele>
        <time>2019-02-11T18:16:53Z</time>
      </trkpt>
      <trkpt lat="43.92695" lon="-0.37655">
        <ele>89</ele>
        <time>2019-02-11T18:17:53Z</time>
      </trkpt>
      <trkpt lat="43.926" lon="-0.37751">
        <ele>89</ele>
        <time>2019-02-11T18:18:53Z</time>
      </trkpt>
      <trkpt lat="43.92565" lon="-0.37772">
        <ele>89</ele>
        <time>2019-02-11T18:19:53Z</time>
      </trkpt>
      <trkpt lat="43.92471" lon="-0.37832">
        <ele>87</ele>
        <time>2019-02-11T18:20:53Z</time>
      </trkpt>
      <trkpt lat="43.92307" lon="-0.37818">
        <ele>85</ele>
        <time>2019-02-11T18:21:53Z</time>
      </trkpt>
      <trkpt lat="43.92258" lon="-0.37744">
        <ele>83</ele>
        <time>2019-02-11T18:22:53Z</time>
      </trkpt>
      <trkpt lat="43.92233" lon="-0.37707">
        <ele>82</ele>
        <time>2019-02-11T18:23:53Z</time>
      </trkpt>
      <trkpt lat="43.92097" lon="-0.37771">
        <ele>82</ele>
        <time>2019-02-11T18:24:53Z</time>
      </trkpt>
      <trkpt lat="43.9198" lon="-0.37816">
        <ele>83</ele>
        <time>2019-02-11T18:25:53Z</time>
      </trkpt>
      <trkpt lat="43.91892" lon="-0.37886">
        <ele>81</ele>
        <time>2019-02-11T18:26:53Z</time>
      </trkpt>
      <trkpt lat="43.91844" lon="-0.37897">
        <ele>78</ele>
        <time>2019-02-11T18:27:53Z</time>
      </trkpt>
      <trkpt lat="43.91837" lon="-0.37919">
        <ele>78</ele>
        <time>2019-02-11T18:28:53Z</time>
      </trkpt>
      <trkpt lat="43.91776" lon="-0.37946">
        <ele>79</ele>
        <time>2019-02-11T18:29:53Z</time>
      </trkpt>
      <trkpt lat="43.9174" lon="-0.37973">
        <ele>80</ele>
        <time>2019-02-11T18:30:53Z</time>
      </trkpt>
      <trkpt lat="43.91721" lon="-0.38003">
        <ele>80</ele>
        <time>2019-02-11T18:31:53Z</time>
      </trkpt>
      <trkpt lat="43.91668" lon="-0.38011">
        <ele>81</ele>
        <time>2019-02-11T18:32:53Z</time>
      </trkpt>
      <trkpt lat="43.91649" lon="-0.38">
        <ele>81</ele>
        <time>2019-02-11T18:33:53Z</time>
      </trkpt>
      <trkpt lat="43.91604" lon="-0.38014">
        <ele>81</ele>
        <time>2019-02-11T18:34:53Z</time>
      </trkpt>
      <trkpt lat="43.91561" lon="-0.3803">
        <ele>82</ele>
        <time>2019-02-11T18:35:53Z</time>
      </trkpt>
      <trkpt lat="43.91546" lon="-0.3802">
        <ele>82</ele>
        <time>2019-02-11T18:36:53Z</time>
      </trkpt>
      <trkpt lat="43.91507" lon="-0.38056">
        <ele>83</ele>
        <time>2019-02-11T18:37:53Z</time>
      </trkpt>
      <trkpt lat="43.91112" lon="-0.38204">
        <ele>71</ele>
        <time>2019-02-11T18:38:53Z</time>
      </trkpt>
      <trkpt lat="43.90977" lon="-0.38274">
        <ele>73</ele>
        <time>2019-02-11T18:39:53Z</time>
      </trkpt>
      <trkpt lat="43.90865" lon="-0.38272">
        <ele>70</ele>
        <time>2019-02-11T18:40:53Z</time>
      </trkpt>
      <trkpt lat="43.90702" lon="-0.38267">
        <ele>68</ele>
        <time>2019-02-11T18:41:53Z</time>
      </trkpt>
      <trkpt lat="43.90619" lon="-0.38283">
        <ele>68</ele>
        <time>2019-02-11T18:42:53Z</time>
      </trkpt>
      <trkpt lat="43.90497" lon="-0.38301">
        <ele>66</ele>
        <time>2019-02-11T18:43:53Z</time>
      </trkpt>
      <trkpt lat="43.90358" lon="-0.38321">
        <ele>66</ele>
        <time>2019-02-11T18:44:53Z</time>
      </trkpt>
      <trkpt lat="43.9032" lon="-0.38332">
        <ele>66</ele>
        <time>2019-02-11T18:45:53Z</time>
      </trkpt>
      <trkpt lat="43.89916" lon="-0.38491">
        <ele>64</ele>
        <time>2019-02-11T18:46:53Z</time>
      </trkpt>
      <trkpt lat="43.89877" lon="-0.38521">
        <ele>62</ele>
        <time>2019-02-11T18:47:53Z</time>
      </trkpt>
      <trkpt lat="43.89818" lon="-0.38617">
        <ele>59</ele>
        <time>2019-02-11T18:48:53Z</time>
      </trkpt>
      <trkpt lat="43.89667" lon="-0.38871">
        <ele>57</ele>
        <time>2019-02-11T18:49:53Z</time>
      </trkpt>
      <trkpt lat="43.8964" lon="-0.38916">
        <ele>56</ele>
        <time>2019-02-11T18:50:53Z</time>
      </trkpt>
      <trkpt lat="43.89633" lon="-0.38957">
        <ele>53</ele>
        <time>2019-02-11T18:51:53Z</time>
      </trkpt>
      <trkpt lat="43.89649" lon="-0.39007">
        <ele>51</ele>
        <time>2019-02-11T18:52:53Z</time>
      </trkpt>
      <trkpt lat="43.89644" lon="-0.39052">
        <ele>52</ele>
        <time>2019-02-11T18:53:53Z</time>
      </trkpt>
      <trkpt lat="43.89673" lon="-0.39111">
        <ele>55</ele>
        <time>2019-02-11T18:54:53Z</time>
      </trkpt>
      <trkpt lat="43.89662" lon="-0.39146">
        <ele>58</ele>
        <time>2019-02-11T18:55:53Z</time>
      </trkpt>
      <trkpt lat="43.89595" lon="-0.39254">
        <ele>60</ele>
        <time>2019-02-11T18:56:53Z</time>
      </trkpt>
      <trkpt lat="43.89517" lon="-0.3934">
        <ele>61</ele>
        <time>2019-02-11T18:57:53Z</time>
      </trkpt>
      <trkpt lat="43.8943" lon="-0.39418">
        <ele>64</ele>
        <time>2019-02-11T18:58:53Z</time>
      </trkpt>
      <trkpt lat="43.89406" lon="-0.3942">
        <ele>64</ele>
        <time>2019-02-11T18:59:53Z</time>
      </trkpt>
      <trkpt lat="43.89369" lon="-0.39396">
        <ele>64</ele>
        <time>2019-02-11T19:00:53Z</time>
      </trkpt>
      <trkpt lat="43.89314" lon="-0.39373">
        <ele>64</ele>
        <time>2019-02-11T19:01:53Z</time>
      </trkpt>
      <trkpt lat="43.89254" lon="-0.39364">
        <ele>61</ele>
        <time>2019-02-11T19:02:53Z</time>
      </trkpt>
      <trkpt lat="43.89154" lon="-0.39346">
        <ele>59</ele>
        <time>2019-02-11T19:03:53Z</time>
      </trkpt>
      <trkpt lat="43.89114" lon="-0.39321">
        <ele>59</ele>
        <time>2019-02-11T19:04:53Z</time>
      </trkpt>
      <trkpt lat="43.8908" lon="-0.39288">
        <ele>57</ele>
        <time>2019-02-11T19:05:53Z</time>
      </trkpt>
      <trkpt lat="43.89055" lon="-0.39274">
        <ele>55</ele>
        <time>2019-02-11T19:06:53Z</time>
      </trkpt>
      <trkpt lat="43.89003" lon="-0.39281">
        <ele>53</ele>
        <time>2019-02-11T19:07:53Z</time>
      </trkpt>
      <trkpt lat="43.88999" lon="-0.39315">
        <ele>55</ele>
        <time>2019-02-11T19:08:53Z</time>
      </trkpt>
      <trkpt lat="43.88962" lon="-0.39301">
        <ele>55</ele>
        <time>2019-02-11T19:09:53Z</time>
      </trkpt>
      <trkpt lat="43.88934" lon="-0.39286">
        <ele>54</ele>
        <time>2019-02-11T19:10:53Z</time>
      </trkpt>
      <trkpt lat="43.88922" lon="-0.39234">
        <ele>51</ele>
        <time>2019-02-11T19:11:53Z</time>
      </trkpt>
      <trkpt lat="43.88922" lon="-0.39209">
        <ele>51</ele>
        <time>2019-02-11T19:12:53Z</time>
      </trkpt>
      <trkpt lat="43.88893" lon="-0.39207">
        <ele>52</ele>
        <time>2019-02-11T19:13:53Z</time>
      </trkpt>
      <trkpt lat="43.88846" lon="-0.392">
        <ele>56</ele>
        <time>2019-02-11T19:14:53Z</time>
      </trkpt>
      <trkpt lat="43.88811" lon="-0.39209">
        <ele>60</ele>
        <time>2019-02-11T19:15:53Z</time>
      </trkpt>
      <trkpt lat="43.88777" lon="-0.39238">
        <ele>66</ele>
        <time>2019-02-11T19:16:53Z</time>
      </trkpt>
      <trkpt lat="43.88727" lon="-0.39315">
        <ele>69</ele>
        <time>2019-02-11T19:17:53Z</time>
      </trkpt>
      <trkpt lat="43.88661" lon="-0.39371">
        <ele>73</ele>
        <time>2019-02-11T19:18:53Z</time>
      </trkpt>
      <trkpt lat="43.88619" lon="-0.39422">
        <ele>75</ele>
        <time>2019-02-11T19:19:53Z</time>
      </trkpt>
      <trkpt lat="43.886" lon="-0.39438">
        <ele>76</ele>
        <time>2019-02-11T19:20:53Z</time>
      </trkpt>
      <trkpt lat="43.886" lon="-0.39681">
        <ele>82</ele>
        <time>2019-02-11T19:21:53Z</time>
      </trkpt>
      <trkpt lat="43.8858" lon="-0.3993">
        <ele>83</ele>
        <time>2019-02-11T19:22:53Z</time>
      </trkpt>
      <trkpt lat="43.88521" lon="-0.40515">
        <ele>78</ele>
        <time>2019-02-11T19:23:53Z</time>
      </trkpt>
      <trkpt lat="43.88439" lon="-0.41385">
        <ele>86</ele>
        <time>2019-02-11T19:24:53Z</time>
      </trkpt>
      <trkpt lat="43.88388" lon="-0.4191">
        <ele>79</ele>
        <time>2019-02-11T19:25:53Z</time>
      </trkpt>
      <trkpt lat="43.88303" lon="-0.42823">
        <ele>83</ele>
        <time>2019-02-11T19:26:53Z</time>
      </trkpt>
      <trkpt lat="43.88193" lon="-0.43918">
        <ele>70</ele>
        <time>2019-02-11T19:27:53Z</time>
      </trkpt>
      <trkpt lat="43.8817" lon="-0.44337">
        <ele>80</ele>
        <time>2019-02-11T19:28:53Z</time>
      </trkpt>
      <trkpt lat="43.8817" lon="-0.44524">
        <ele>83</ele>
        <time>2019-02-11T19:29:53Z</time>
      </trkpt>
      <trkpt lat="43.88183" lon="-0.44779">
        <ele>81</ele>
        <time>2019-02-11T19:30:53Z</time>
      </trkpt>
      <trkpt lat="43.88198" lon="-0.4493">
        <ele>86</ele>
        <time>2019-02-11T19:31:53Z</time>
      </trkpt>
      <trkpt lat="43.88251" lon="-0.45212">
        <ele>87</ele>
        <time>2019-02-11T19:32:53Z</time>
      </trkpt>
      <trkpt lat="43.88359" lon="-0.45735">
        <ele>91</ele>
        <time>2019-02-11T19:33:53Z</time>
      </trkpt>
      <trkpt lat="43.88526" lon="-0.46558">
        <ele>77</ele>
        <time>2019-02-11T19:34:53Z</time>
      </trkpt>
      <trkpt lat="43.88659" lon="-0.47287">
        <ele>68</ele>
        <time>2019-02-11T19:35:53Z</time>
      </trkpt>
      <trkpt lat="43.88778" lon="-0.4792">
        <ele>67</ele>
        <time>2019-02-11T19:36:53Z</time>
      </trkpt>
      <trkpt lat="43.88826" lon="-0.48229">
        <ele>64</ele>
        <time>2019-02-11T19:37:53Z</time>
      </trkpt>
      <trkpt lat="43.88822" lon="-0.48382">
        <ele>61</ele>
        <time>2019-02-11T19:38:53Z</time>
      </trkpt>
      <trkpt lat="43.88794" lon="-0.48525">
        <ele>61</ele>
        <time>2019-02-11T19:39:53Z</time>
      </trkpt>
      <trkpt lat="43.88761" lon="-0.48629">
        <ele>58</ele>
        <time>2019-02-11T19:40:53Z</time>
      </trkpt>
      <trkpt lat="43.88713" lon="-0.4873">
        <ele>58</ele>
        <time>2019-02-11T19:41:53Z</time>
      </trkpt>
      <trkpt lat="43.88683" lon="-0.48775">
        <ele>59</ele>
        <time>2019-02-11T19:42:53Z</time>
      </trkpt>
      <trkpt lat="43.887" lon="-0.48837">
        <ele>59</ele>
        <time>2019-02-11T19:43:53Z</time>
      </trkpt>
      <trkpt lat="43.88707" lon="-0.48855">
        <ele>58</ele>
        <time>2019-02-11T19:44:53Z</time>
      </trkpt>
      <trkpt lat="43.88714" lon="-0.48892">
        <ele>58</ele>
        <time>2019-02-11T19:45:53Z</time>
      </trkpt>
      <trkpt lat="43.88731" lon="-0.48912">
        <ele>57</ele>
        <time>2019-02-11T19:46:53Z</time>
      </trkpt>
      <trkpt lat="43.88756" lon="-0.48926">
        <ele>56</ele>
        <time>2019-02-11T19:47:53Z</time>
      </trkpt>
      <trkpt lat="43.88792" lon="-0.48907">
        <ele>55</ele>
        <time>2019-02-11T19:48:53Z</time>
      </trkpt>
      <trkpt lat="43.88825" lon="-0.48903">
        <ele>54</ele>
        <time>2019-02-11T19:49:53Z</time>
      </trkpt>
      <trkpt lat="43.88949" lon="-0.48928">
        <ele>50</ele>
        <time>2019-02-11T19:50:53Z</time>
      </trkpt>
      <trkpt lat="43.89035" lon="-0.48936">
        <ele>49</ele>
        <time>2019-02-11T19:51:53Z</time>
      </trkpt>
      <trkpt lat="43.88998" lon="-0.49109">
        <ele>48</ele>
        <time>2019-02-11T19:52:53Z</time>
      </trkpt>
      <trkpt lat="43.88971" lon="-0.49253">
        <ele>47</ele>
        <time>2019-02-11T19:53:53Z</time>
      </trkpt>
      <trkpt lat="43.88963" lon="-0.49313">
        <ele>47</ele>
        <time>2019-02-11T19:54:53Z</time>
      </trkpt>
      <trkpt lat="43.88956" lon="-0.49516">
        <ele>48</ele>
        <time>2019-02-11T19:55:53Z</time>
      </trkpt>
      <trkpt lat="43.88969" lon="-0.49607">
        <ele>47</ele>
        <time>2019-02-11T19:56:53Z</time>
      </trkpt>
      <trkpt lat="43.8898" lon="-0.49681">
        <ele>50</ele>
        <time>2019-02-11T19:57:53Z</time>
      </trkpt>
      <trkpt lat="43.89007" lon="-0.49707">
        <ele>49</ele>
        <time>2019-02-11T19:58:53Z</time>
      </trkpt>
      <trkpt lat="43.89036" lon="-0.49923">
        <ele>50</ele>
        <time>2019-02-11T19:59:53Z</time>
      </trkpt>
    </trkseg>
  </trk>
</gpx>